sensor_id;sensor_type;location;lat;lon;timestamp;temperature;humidity
41953;DHT22;63613;28.200;112.870;2023-02-25T00:01:43;12.90;70.90
41953;DHT22;63613;28.200;112.870;2023-02-25T00:04:10;12.90;71.00
41953;DHT22;63613;28.200;112.870;2023-02-25T00:06:37;12.90;71.10
41953;DHT22;63613;28.200;112.870;2023-02-25T00:09:04;12.90;71.10
41953;DHT22;63613;28.200;112.870;2023-02-25T00:11:32;12.90;71.20
41953;DHT22;63613;28.200;112.870;2023-02-25T00:13:59;12.90;71.20
41953;DHT22;63613;28.200;112.870;2023-02-25T00:16:26;12.90;71.30
41953;DHT22;63613;28.200;112.870;2023-02-25T00:19:12;12.90;71.30
41953;DHT22;63613;28.200;112.870;2023-02-25T00:21:39;13.00;71.30
41953;DHT22;63613;28.200;112.870;2023-02-25T00:24:06;13.00;71.40
41953;DHT22;63613;28.200;112.870;2023-02-25T00:26:33;13.00;71.40
41953;DHT22;63613;28.200;112.870;2023-02-25T00:29:00;13.00;71.40
41953;DHT22;63613;28.200;112.870;2023-02-25T00:31:27;13.10;71.40
41953;DHT22;63613;28.200;112.870;2023-02-25T00:33:54;13.10;71.50
41953;DHT22;63613;28.200;112.870;2023-02-25T00:36:23;13.10;71.50
41953;DHT22;63613;28.200;112.870;2023-02-25T00:38:54;13.10;71.50
41953;DHT22;63613;28.200;112.870;2023-02-25T00:41:26;13.10;71.60
41953;DHT22;63613;28.200;112.870;2023-02-25T00:43:58;13.10;71.60
41953;DHT22;63613;28.200;112.870;2023-02-25T00:46:27;13.10;71.60
41953;DHT22;63613;28.200;112.870;2023-02-25T00:48:54;13.10;71.50
41953;DHT22;63613;28.200;112.870;2023-02-25T00:51:24;13.10;71.30
41953;DHT22;63613;28.200;112.870;2023-02-25T00:53:53;13.10;71.20
41953;DHT22;63613;28.200;112.870;2023-02-25T00:56:22;13.10;70.90
41953;DHT22;63613;28.200;112.870;2023-02-25T00:58:50;13.10;70.60
41953;DHT22;63613;28.200;112.870;2023-02-25T01:01:21;13.10;70.50
41953;DHT22;63613;28.200;112.870;2023-02-25T01:03:50;13.10;70.40
41953;DHT22;63613;28.200;112.870;2023-02-25T01:06:18;13.20;70.30
41953;DHT22;63613;28.200;112.870;2023-02-25T01:08:45;13.20;70.50
41953;DHT22;63613;28.200;112.870;2023-02-25T01:11:16;13.20;70.70
41953;DHT22;63613;28.200;112.870;2023-02-25T01:13:47;13.20;70.80
41953;DHT22;63613;28.200;112.870;2023-02-25T01:16:18;13.20;70.90
41953;DHT22;63613;28.200;112.870;2023-02-25T01:18:45;13.30;71.00
41953;DHT22;63613;28.200;112.870;2023-02-25T01:21:29;13.30;70.90
41953;DHT22;63613;28.200;112.870;2023-02-25T01:24:02;13.40;70.70
41953;DHT22;63613;28.200;112.870;2023-02-25T01:26:31;13.40;70.60
41953;DHT22;63613;28.200;112.870;2023-02-25T01:28:59;13.40;70.40
41953;DHT22;63613;28.200;112.870;2023-02-25T01:31:26;13.40;70.60
41953;DHT22;63613;28.200;112.870;2023-02-25T01:34:16;13.40;70.80
41953;DHT22;63613;28.200;112.870;2023-02-25T01:36:43;13.40;71.10
41953;DHT22;63613;28.200;112.870;2023-02-25T01:39:13;13.40;71.10
41953;DHT22;63613;28.200;112.870;2023-02-25T01:41:40;13.50;71.20
41953;DHT22;63613;28.200;112.870;2023-02-25T01:46:34;13.60;71.60
41953;DHT22;63613;28.200;112.870;2023-02-25T01:49:06;13.60;71.50
41953;DHT22;63613;28.200;112.870;2023-02-25T01:51:35;13.60;71.30
41953;DHT22;63613;28.200;112.870;2023-02-25T01:54:03;13.80;71.30
41953;DHT22;63613;28.200;112.870;2023-02-25T01:56:33;13.70;71.40
41953;DHT22;63613;28.200;112.870;2023-02-25T01:59:00;13.80;71.60
41953;DHT22;63613;28.200;112.870;2023-02-25T02:01:30;13.80;71.70
41953;DHT22;63613;28.200;112.870;2023-02-25T02:04:01;13.80;71.70
41953;DHT22;63613;28.200;112.870;2023-02-25T02:06:39;13.80;71.60
41953;DHT22;63613;28.200;112.870;2023-02-25T02:09:27;13.90;71.80
41953;DHT22;63613;28.200;112.870;2023-02-25T02:12:05;13.90;71.90
41953;DHT22;63613;28.200;112.870;2023-02-25T02:14:53;13.90;71.80
41953;DHT22;63613;28.200;112.870;2023-02-25T02:22:53;14.00;71.60
41953;DHT22;63613;28.200;112.870;2023-02-25T02:31:18;14.10;72.10
41953;DHT22;63613;28.200;112.870;2023-02-25T02:46:12;14.20;71.70
41953;DHT22;63613;28.200;112.870;2023-02-25T02:49:02;14.30;71.50
41953;DHT22;63613;28.200;112.870;2023-02-25T02:51:37;14.30;71.80
41953;DHT22;63613;28.200;112.870;2023-02-25T02:54:27;14.30;71.60
41953;DHT22;63613;28.200;112.870;2023-02-25T02:57:14;14.40;71.50
41953;DHT22;63613;28.200;112.870;2023-02-25T03:00:11;14.40;71.90
41953;DHT22;63613;28.200;112.870;2023-02-25T03:02:45;14.50;71.90
41953;DHT22;63613;28.200;112.870;2023-02-25T03:05:17;14.40;71.60
41953;DHT22;63613;28.200;112.870;2023-02-25T03:08:06;14.40;71.30
41953;DHT22;63613;28.200;112.870;2023-02-25T03:10:33;14.40;71.10
41953;DHT22;63613;28.200;112.870;2023-02-25T03:13:00;14.40;70.90
41953;DHT22;63613;28.200;112.870;2023-02-25T03:15:27;14.60;71.00
41953;DHT22;63613;28.200;112.870;2023-02-25T03:18:02;14.70;71.40
41953;DHT22;63613;28.200;112.870;2023-02-25T03:20:41;14.80;71.80
41953;DHT22;63613;28.200;112.870;2023-02-25T03:23:12;14.80;72.20
41953;DHT22;63613;28.200;112.870;2023-02-25T03:25:51;14.90;72.60
41953;DHT22;63613;28.200;112.870;2023-02-25T03:28:26;15.00;72.90
41953;DHT22;63613;28.200;112.870;2023-02-25T03:31:10;15.10;73.00
41953;DHT22;63613;28.200;112.870;2023-02-25T03:33:47;15.20;73.00
41953;DHT22;63613;28.200;112.870;2023-02-25T03:36:30;15.30;73.10
41953;DHT22;63613;28.200;112.870;2023-02-25T03:39:04;15.30;72.90
41953;DHT22;63613;28.200;112.870;2023-02-25T03:41:34;15.40;72.60
41953;DHT22;63613;28.200;112.870;2023-02-25T03:44:04;15.40;72.00
41953;DHT22;63613;28.200;112.870;2023-02-25T03:46:32;15.40;71.50
41953;DHT22;63613;28.200;112.870;2023-02-25T03:49:03;15.30;70.80
41953;DHT22;63613;28.200;112.870;2023-02-25T03:51:34;15.40;70.10
41953;DHT22;63613;28.200;112.870;2023-02-25T03:54:05;15.40;69.70
41953;DHT22;63613;28.200;112.870;2023-02-25T03:56:51;15.40;69.60
41953;DHT22;63613;28.200;112.870;2023-02-25T03:59:18;15.50;69.50
41953;DHT22;63613;28.200;112.870;2023-02-25T04:01:47;15.50;69.30
41953;DHT22;63613;28.200;112.870;2023-02-25T04:04:15;15.40;69.00
41953;DHT22;63613;28.200;112.870;2023-02-25T04:07:02;15.60;68.50
41953;DHT22;63613;28.200;112.870;2023-02-25T04:09:29;15.60;68.70
41953;DHT22;63613;28.200;112.870;2023-02-25T04:11:59;15.60;68.40
41953;DHT22;63613;28.200;112.870;2023-02-25T04:14:25;15.50;68.10
41953;DHT22;63613;28.200;112.870;2023-02-25T04:16:52;15.60;67.60
41953;DHT22;63613;28.200;112.870;2023-02-25T04:19:19;15.60;67.70
41953;DHT22;63613;28.200;112.870;2023-02-25T04:21:46;15.60;67.50
41953;DHT22;63613;28.200;112.870;2023-02-25T04:24:13;15.70;67.70
41953;DHT22;63613;28.200;112.870;2023-02-25T04:26:40;15.60;67.40
41953;DHT22;63613;28.200;112.870;2023-02-25T04:29:27;15.70;67.10
41953;DHT22;63613;28.200;112.870;2023-02-25T04:31:54;15.70;66.70
41953;DHT22;63613;28.200;112.870;2023-02-25T04:34:21;15.60;66.30
41953;DHT22;63613;28.200;112.870;2023-02-25T04:36:49;15.70;66.20
41953;DHT22;63613;28.200;112.870;2023-02-25T04:39:17;15.80;66.50
41953;DHT22;63613;28.200;112.870;2023-02-25T04:41:45;15.80;66.90
41953;DHT22;63613;28.200;112.870;2023-02-25T04:44:13;15.80;66.70
41953;DHT22;63613;28.200;112.870;2023-02-25T04:46:41;15.80;66.40
41953;DHT22;63613;28.200;112.870;2023-02-25T04:49:09;15.70;66.10
41953;DHT22;63613;28.200;112.870;2023-02-25T04:51:37;15.70;65.80
41953;DHT22;63613;28.200;112.870;2023-02-25T04:54:04;15.70;65.70
41953;DHT22;63613;28.200;112.870;2023-02-25T04:56:31;15.70;65.60
41953;DHT22;63613;28.200;112.870;2023-02-25T04:58:58;15.70;65.70
41953;DHT22;63613;28.200;112.870;2023-02-25T05:01:26;15.70;65.70
41953;DHT22;63613;28.200;112.870;2023-02-25T05:03:53;15.80;65.60
41953;DHT22;63613;28.200;112.870;2023-02-25T05:06:25;15.80;65.80
41953;DHT22;63613;28.200;112.870;2023-02-25T05:08:57;15.90;65.90
41953;DHT22;63613;28.200;112.870;2023-02-25T05:11:26;15.90;66.00
41953;DHT22;63613;28.200;112.870;2023-02-25T05:13:54;15.90;65.80
41953;DHT22;63613;28.200;112.870;2023-02-25T05:16:22;15.90;65.60
41953;DHT22;63613;28.200;112.870;2023-02-25T05:18:50;15.80;65.40
41953;DHT22;63613;28.200;112.870;2023-02-25T05:21:19;15.80;65.20
41953;DHT22;63613;28.200;112.870;2023-02-25T05:23:51;15.80;65.00
41953;DHT22;63613;28.200;112.870;2023-02-25T05:26:21;15.70;65.00
41953;DHT22;63613;28.200;112.870;2023-02-25T05:28:54;15.60;64.90
41953;DHT22;63613;28.200;112.870;2023-02-25T05:31:24;15.60;64.90
41953;DHT22;63613;28.200;112.870;2023-02-25T05:33:52;15.60;64.90
41953;DHT22;63613;28.200;112.870;2023-02-25T05:36:20;15.60;64.90
41953;DHT22;63613;28.200;112.870;2023-02-25T05:38:53;15.60;64.90
41953;DHT22;63613;28.200;112.870;2023-02-25T05:41:20;15.60;64.70
41953;DHT22;63613;28.200;112.870;2023-02-25T05:43:47;15.70;64.90
41953;DHT22;63613;28.200;112.870;2023-02-25T05:46:15;15.50;57.70
41953;DHT22;63613;28.200;112.870;2023-02-25T05:48:43;15.30;56.50
41953;DHT22;63613;28.200;112.870;2023-02-25T05:51:17;15.30;56.70
41953;DHT22;63613;28.200;112.870;2023-02-25T05:53:46;15.50;59.00
41953;DHT22;63613;28.200;112.870;2023-02-25T05:56:16;15.60;60.00
41953;DHT22;63613;28.200;112.870;2023-02-25T05:58:44;15.60;61.40
41953;DHT22;63613;28.200;112.870;2023-02-25T06:01:14;15.60;60.30
41953;DHT22;63613;28.200;112.870;2023-02-25T06:03:43;15.60;59.50
41953;DHT22;63613;28.200;112.870;2023-02-25T06:06:11;15.80;64.40
41953;DHT22;63613;28.200;112.870;2023-02-25T06:08:40;15.80;63.80
41953;DHT22;63613;28.200;112.870;2023-02-25T06:11:12;15.80;58.50
41953;DHT22;63613;28.200;112.870;2023-02-25T06:13:48;15.90;57.20
41953;DHT22;63613;28.200;112.870;2023-02-25T06:16:19;15.90;54.20
41953;DHT22;63613;28.200;112.870;2023-02-25T06:18:47;16.00;54.20
41953;DHT22;63613;28.200;112.870;2023-02-25T06:21:15;16.00;53.20
41953;DHT22;63613;28.200;112.870;2023-02-25T06:23:43;16.00;53.50
41953;DHT22;63613;28.200;112.870;2023-02-25T06:26:11;16.00;54.30
41953;DHT22;63613;28.200;112.870;2023-02-25T06:28:39;15.90;54.10
41953;DHT22;63613;28.200;112.870;2023-02-25T06:31:18;15.80;53.50
41953;DHT22;63613;28.200;112.870;2023-02-25T06:33:45;15.80;53.30
41953;DHT22;63613;28.200;112.870;2023-02-25T06:36:13;15.80;54.20
41953;DHT22;63613;28.200;112.870;2023-02-25T06:38:40;15.80;52.40
41953;DHT22;63613;28.200;112.870;2023-02-25T06:41:17;15.80;53.80
41953;DHT22;63613;28.200;112.870;2023-02-25T06:43:44;15.80;52.90
41953;DHT22;63613;28.200;112.870;2023-02-25T06:46:13;15.80;53.20
41953;DHT22;63613;28.200;112.870;2023-02-25T06:48:40;15.80;52.60
41953;DHT22;63613;28.200;112.870;2023-02-25T06:51:07;15.70;52.60
41953;DHT22;63613;28.200;112.870;2023-02-25T06:53:40;15.70;52.40
41953;DHT22;63613;28.200;112.870;2023-02-25T06:56:07;15.70;52.30
41953;DHT22;63613;28.200;112.870;2023-02-25T06:58:35;15.50;51.20
41953;DHT22;63613;28.200;112.870;2023-02-25T07:01:13;15.60;52.10
41953;DHT22;63613;28.200;112.870;2023-02-25T07:03:41;15.60;52.10
41953;DHT22;63613;28.200;112.870;2023-02-25T07:06:11;15.50;52.30
41953;DHT22;63613;28.200;112.870;2023-02-25T07:08:41;15.60;52.10
41953;DHT22;63613;28.200;112.870;2023-02-25T07:13:47;15.90;53.50
41953;DHT22;63613;28.200;112.870;2023-02-25T07:16:15;15.90;54.10
41953;DHT22;63613;28.200;112.870;2023-02-25T07:19:02;15.90;54.70
41953;DHT22;63613;28.200;112.870;2023-02-25T07:21:30;15.90;55.80
41953;DHT22;63613;28.200;112.870;2023-02-25T07:24:17;16.00;56.90
41953;DHT22;63613;28.200;112.870;2023-02-25T07:26:43;16.10;58.40
41953;DHT22;63613;28.200;112.870;2023-02-25T07:29:10;16.10;59.10
41953;DHT22;63613;28.200;112.870;2023-02-25T07:31:39;16.10;59.30
41953;DHT22;63613;28.200;112.870;2023-02-25T07:34:06;16.20;59.80
41953;DHT22;63613;28.200;112.870;2023-02-25T07:36:34;16.20;59.90
41953;DHT22;63613;28.200;112.870;2023-02-25T07:39:07;16.30;60.00
41953;DHT22;63613;28.200;112.870;2023-02-25T07:41:53;16.30;60.20
41953;DHT22;63613;28.200;112.870;2023-02-25T07:44:26;16.40;60.40
41953;DHT22;63613;28.200;112.870;2023-02-25T07:46:52;16.50;60.70
41953;DHT22;63613;28.200;112.870;2023-02-25T07:49:19;16.50;61.00
41953;DHT22;63613;28.200;112.870;2023-02-25T07:51:46;16.50;61.10
41953;DHT22;63613;28.200;112.870;2023-02-25T07:54:15;16.50;61.40
41953;DHT22;63613;28.200;112.870;2023-02-25T07:56:46;16.50;61.20
41953;DHT22;63613;28.200;112.870;2023-02-25T07:59:17;16.60;61.00
41953;DHT22;63613;28.200;112.870;2023-02-25T08:01:44;16.60;60.90
41953;DHT22;63613;28.200;112.870;2023-02-25T08:04:11;16.60;60.90
41953;DHT22;63613;28.200;112.870;2023-02-25T08:06:41;16.70;60.90
41953;DHT22;63613;28.200;112.870;2023-02-25T08:09:09;16.70;60.80
41953;DHT22;63613;28.200;112.870;2023-02-25T08:11:37;16.70;60.60
41953;DHT22;63613;28.200;112.870;2023-02-25T08:14:04;16.60;60.70
41953;DHT22;63613;28.200;112.870;2023-02-25T08:16:32;16.60;60.80
41953;DHT22;63613;28.200;112.870;2023-02-25T08:18:59;16.50;60.90
41953;DHT22;63613;28.200;112.870;2023-02-25T08:21:26;16.50;61.00
41953;DHT22;63613;28.200;112.870;2023-02-25T08:24:13;16.60;61.10
41953;DHT22;63613;28.200;112.870;2023-02-25T08:26:40;16.60;61.00
41953;DHT22;63613;28.200;112.870;2023-02-25T08:29:07;16.60;61.00
41953;DHT22;63613;28.200;112.870;2023-02-25T08:31:34;16.70;61.10
41953;DHT22;63613;28.200;112.870;2023-02-25T08:34:02;16.60;61.20
41953;DHT22;63613;28.200;112.870;2023-02-25T08:36:30;16.60;61.30
41953;DHT22;63613;28.200;112.870;2023-02-25T08:38:58;16.60;61.40
41953;DHT22;63613;28.200;112.870;2023-02-25T08:41:26;16.60;61.30
41953;DHT22;63613;28.200;112.870;2023-02-25T08:43:55;16.60;61.30
41953;DHT22;63613;28.200;112.870;2023-02-25T08:46:24;16.50;62.70
41953;DHT22;63613;28.200;112.870;2023-02-25T08:48:52;16.50;63.90
41953;DHT22;63613;28.200;112.870;2023-02-25T08:51:21;16.50;65.00
41953;DHT22;63613;28.200;112.870;2023-02-25T08:53:48;16.40;66.00
41953;DHT22;63613;28.200;112.870;2023-02-25T08:56:16;16.40;67.00
41953;DHT22;63613;28.200;112.870;2023-02-25T08:58:43;16.40;67.70
41953;DHT22;63613;28.200;112.870;2023-02-25T09:01:12;16.30;68.20
41953;DHT22;63613;28.200;112.870;2023-02-25T09:03:45;16.30;68.60
41953;DHT22;63613;28.200;112.870;2023-02-25T09:06:23;16.30;69.00
41953;DHT22;63613;28.200;112.870;2023-02-25T09:08:51;16.20;69.50
41953;DHT22;63613;28.200;112.870;2023-02-25T09:11:20;16.20;69.70
41953;DHT22;63613;28.200;112.870;2023-02-25T09:13:47;16.20;69.90
41953;DHT22;63613;28.200;112.870;2023-02-25T09:16:14;16.10;70.30
41953;DHT22;63613;28.200;112.870;2023-02-25T09:18:45;16.10;71.70
41953;DHT22;63613;28.200;112.870;2023-02-25T09:21:13;16.00;72.20
41953;DHT22;63613;28.200;112.870;2023-02-25T09:23:40;16.10;73.10
41953;DHT22;63613;28.200;112.870;2023-02-25T09:26:08;16.00;73.00
41953;DHT22;63613;28.200;112.870;2023-02-25T09:28:35;16.00;72.60
41953;DHT22;63613;28.200;112.870;2023-02-25T09:31:02;15.90;73.10
41953;DHT22;63613;28.200;112.870;2023-02-25T09:33:33;15.90;74.40
41953;DHT22;63613;28.200;112.870;2023-02-25T09:36:13;15.80;75.10
41953;DHT22;63613;28.200;112.870;2023-02-25T09:38:42;15.80;75.40
41953;DHT22;63613;28.200;112.870;2023-02-25T09:46:26;15.80;76.90
41953;DHT22;63613;28.200;112.870;2023-02-25T09:51:47;15.70;77.60
41953;DHT22;63613;28.200;112.870;2023-02-25T09:54:47;15.70;77.70
41953;DHT22;63613;28.200;112.870;2023-02-25T09:57:19;15.60;77.40
41953;DHT22;63613;28.200;112.870;2023-02-25T09:59:49;15.60;77.90
41953;DHT22;63613;28.200;112.870;2023-02-25T10:05:02;15.50;78.20
41953;DHT22;63613;28.200;112.870;2023-02-25T10:08:13;15.50;78.40
41953;DHT22;63613;28.200;112.870;2023-02-25T10:11:06;15.40;78.20
41953;DHT22;63613;28.200;112.870;2023-02-25T10:13:53;15.40;78.30
41953;DHT22;63613;28.200;112.870;2023-02-25T10:16:40;15.40;78.60
41953;DHT22;63613;28.200;112.870;2023-02-25T10:19:29;15.30;78.10
41953;DHT22;63613;28.200;112.870;2023-02-25T10:22:37;15.30;79.70
41953;DHT22;63613;28.200;112.870;2023-02-25T10:25:24;15.30;80.60
41953;DHT22;63613;28.200;112.870;2023-02-25T10:28:15;15.30;79.30
41953;DHT22;63613;28.200;112.870;2023-02-25T10:33:19;15.30;80.30
41953;DHT22;63613;28.200;112.870;2023-02-25T10:36:08;15.30;80.70
41953;DHT22;63613;28.200;112.870;2023-02-25T10:38:38;15.30;81.00
41953;DHT22;63613;28.200;112.870;2023-02-25T10:41:26;15.20;81.30
41953;DHT22;63613;28.200;112.870;2023-02-25T10:43:56;15.20;81.60
41953;DHT22;63613;28.200;112.870;2023-02-25T10:54:49;15.10;82.70
41953;DHT22;63613;28.200;112.870;2023-02-25T10:57:26;15.10;82.90
41953;DHT22;63613;28.200;112.870;2023-02-25T11:00:07;15.10;83.10
41953;DHT22;63613;28.200;112.870;2023-02-25T11:02:41;15.10;83.10
41953;DHT22;63613;28.200;112.870;2023-02-25T11:05:38;15.10;83.00
41953;DHT22;63613;28.200;112.870;2023-02-25T11:13:42;15.00;83.50
41953;DHT22;63613;28.200;112.870;2023-02-25T11:16:12;15.00;83.80
41953;DHT22;63613;28.200;112.870;2023-02-25T11:18:40;15.00;83.90
41953;DHT22;63613;28.200;112.870;2023-02-25T11:21:11;15.00;84.00
41953;DHT22;63613;28.200;112.870;2023-02-25T11:23:44;14.90;84.10
41953;DHT22;63613;28.200;112.870;2023-02-25T11:26:25;14.90;84.20
41953;DHT22;63613;28.200;112.870;2023-02-25T11:28:54;14.90;84.50
41953;DHT22;63613;28.200;112.870;2023-02-25T11:31:24;14.90;84.40
41953;DHT22;63613;28.200;112.870;2023-02-25T11:34:04;14.90;84.50
41953;DHT22;63613;28.200;112.870;2023-02-25T11:36:37;14.90;84.70
41953;DHT22;63613;28.200;112.870;2023-02-25T11:39:16;14.90;84.70
41953;DHT22;63613;28.200;112.870;2023-02-25T11:41:44;14.90;84.80
41953;DHT22;63613;28.200;112.870;2023-02-25T11:44:57;14.80;84.90
41953;DHT22;63613;28.200;112.870;2023-02-25T11:47:24;14.90;85.00
41953;DHT22;63613;28.200;112.870;2023-02-25T11:52:51;14.90;85.10
41953;DHT22;63613;28.200;112.870;2023-02-25T11:55:49;14.80;85.10
41953;DHT22;63613;28.200;112.870;2023-02-25T12:39:59;14.70;82.90
41953;DHT22;63613;28.200;112.870;2023-02-25T12:42:44;14.70;82.20
41953;DHT22;63613;28.200;112.870;2023-02-25T12:45:29;14.70;82.90
41953;DHT22;63613;28.200;112.870;2023-02-25T13:05:23;14.60;85.30
41953;DHT22;63613;28.200;112.870;2023-02-25T13:11:57;14.60;85.30
41953;DHT22;63613;28.200;112.870;2023-02-25T13:19:16;14.60;85.40
41953;DHT22;63613;28.200;112.870;2023-02-25T13:53:19;14.50;85.20
41953;DHT22;63613;28.200;112.870;2023-02-25T13:59:02;14.50;85.30
41953;DHT22;63613;28.200;112.870;2023-02-25T14:33:24;14.40;85.00
41953;DHT22;63613;28.200;112.870;2023-02-25T14:43:52;14.40;85.10
41953;DHT22;63613;28.200;112.870;2023-02-25T14:46:43;14.40;84.80
41953;DHT22;63613;28.200;112.870;2023-02-25T14:49:19;14.40;85.10
41953;DHT22;63613;28.200;112.870;2023-02-25T14:55:28;14.40;85.10
41953;DHT22;63613;28.200;112.870;2023-02-25T15:14:39;14.40;84.80
41953;DHT22;63613;28.200;112.870;2023-02-25T15:20:33;14.30;85.00
41953;DHT22;63613;28.200;112.870;2023-02-25T15:23:12;14.30;84.80
41953;DHT22;63613;28.200;112.870;2023-02-25T15:26:24;14.40;84.90
41953;DHT22;63613;28.200;112.870;2023-02-25T15:28:53;14.40;84.60
41953;DHT22;63613;28.200;112.870;2023-02-25T15:31:28;14.40;85.00
41953;DHT22;63613;28.200;112.870;2023-02-25T15:36:48;14.40;84.90
41953;DHT22;63613;28.200;112.870;2023-02-25T15:42:13;14.30;84.80
41953;DHT22;63613;28.200;112.870;2023-02-25T15:44:46;14.30;85.00
41953;DHT22;63613;28.200;112.870;2023-02-25T15:47:26;14.30;84.20
41953;DHT22;63613;28.200;112.870;2023-02-25T15:49:56;14.30;84.30
41953;DHT22;63613;28.200;112.870;2023-02-25T15:52:51;14.30;84.70
41953;DHT22;63613;28.200;112.870;2023-02-25T15:55:29;14.30;84.50
41953;DHT22;63613;28.200;112.870;2023-02-25T15:57:57;14.30;84.50
41953;DHT22;63613;28.200;112.870;2023-02-25T16:03:41;14.30;84.40
41953;DHT22;63613;28.200;112.870;2023-02-25T16:06:24;14.30;84.10
41953;DHT22;63613;28.200;112.870;2023-02-25T16:09:36;14.30;84.10
41953;DHT22;63613;28.200;112.870;2023-02-25T16:12:04;14.30;84.10
41953;DHT22;63613;28.200;112.870;2023-02-25T16:14:34;14.30;83.90
41953;DHT22;63613;28.200;112.870;2023-02-25T16:20:17;14.30;83.60
41953;DHT22;63613;28.200;112.870;2023-02-25T16:22:54;14.30;83.70
41953;DHT22;63613;28.200;112.870;2023-02-25T16:25:33;14.30;83.90
41953;DHT22;63613;28.200;112.870;2023-02-25T16:28:09;14.30;84.00
41953;DHT22;63613;28.200;112.870;2023-02-25T16:31:12;14.30;83.80
41953;DHT22;63613;28.200;112.870;2023-02-25T16:33:49;14.30;83.90
41953;DHT22;63613;28.200;112.870;2023-02-25T16:36:27;14.30;83.80
41953;DHT22;63613;28.200;112.870;2023-02-25T16:39:01;14.30;83.70
41953;DHT22;63613;28.200;112.870;2023-02-25T16:41:29;14.30;83.90
41953;DHT22;63613;28.200;112.870;2023-02-25T16:43:57;14.30;83.90
41953;DHT22;63613;28.200;112.870;2023-02-25T16:46:32;14.30;84.00
41953;DHT22;63613;28.200;112.870;2023-02-25T16:49:10;14.30;83.60
41953;DHT22;63613;28.200;112.870;2023-02-25T16:51:44;14.30;83.80
41953;DHT22;63613;28.200;112.870;2023-02-25T16:54:40;14.30;84.00
41953;DHT22;63613;28.200;112.870;2023-02-25T16:57:18;14.30;83.80
41953;DHT22;63613;28.200;112.870;2023-02-25T16:59:46;14.30;83.90
41953;DHT22;63613;28.200;112.870;2023-02-25T17:02:20;14.30;83.80
41953;DHT22;63613;28.200;112.870;2023-02-25T17:04:52;14.30;84.00
41953;DHT22;63613;28.200;112.870;2023-02-25T17:07:26;14.30;83.90
41953;DHT22;63613;28.200;112.870;2023-02-25T17:10:04;14.30;84.10
41953;DHT22;63613;28.200;112.870;2023-02-25T17:12:42;14.30;84.00
41953;DHT22;63613;28.200;112.870;2023-02-25T17:15:25;14.30;84.10
41953;DHT22;63613;28.200;112.870;2023-02-25T17:18:06;14.20;83.90
41953;DHT22;63613;28.200;112.870;2023-02-25T17:20:35;14.20;83.70
41953;DHT22;63613;28.200;112.870;2023-02-25T17:23:13;14.30;83.70
41953;DHT22;63613;28.200;112.870;2023-02-25T17:25:48;14.30;83.60
41953;DHT22;63613;28.200;112.870;2023-02-25T17:28:22;14.30;83.50
41953;DHT22;63613;28.200;112.870;2023-02-25T17:30:50;14.20;83.40
41953;DHT22;63613;28.200;112.870;2023-02-25T17:33:27;14.20;83.20
41953;DHT22;63613;28.200;112.870;2023-02-25T17:36:11;14.20;83.00
41953;DHT22;63613;28.200;112.870;2023-02-25T17:38:42;14.20;82.60
41953;DHT22;63613;28.200;112.870;2023-02-25T17:41:19;14.20;82.30
41953;DHT22;63613;28.200;112.870;2023-02-25T17:43:47;14.20;82.00
41953;DHT22;63613;28.200;112.870;2023-02-25T17:46:40;14.10;82.00
41953;DHT22;63613;28.200;112.870;2023-02-25T17:49:20;14.10;82.40
41953;DHT22;63613;28.200;112.870;2023-02-25T17:52:00;14.20;82.50
41953;DHT22;63613;28.200;112.870;2023-02-25T17:54:30;14.10;82.70
41953;DHT22;63613;28.200;112.870;2023-02-25T17:57:01;14.10;82.60
41953;DHT22;63613;28.200;112.870;2023-02-25T17:59:38;14.10;82.50
41953;DHT22;63613;28.200;112.870;2023-02-25T18:02:39;14.20;82.60
41953;DHT22;63613;28.200;112.870;2023-02-25T18:08:08;14.10;82.70
41953;DHT22;63613;28.200;112.870;2023-02-25T18:13:03;14.10;83.00
41953;DHT22;63613;28.200;112.870;2023-02-25T18:15:32;14.10;82.70
41953;DHT22;63613;28.200;112.870;2023-02-25T18:18:03;14.10;82.60
41953;DHT22;63613;28.200;112.870;2023-02-25T18:20:36;14.10;82.60
41953;DHT22;63613;28.200;112.870;2023-02-25T18:25:43;14.10;82.70
41953;DHT22;63613;28.200;112.870;2023-02-25T18:28:17;14.10;82.80
41953;DHT22;63613;28.200;112.870;2023-02-25T18:30:47;14.10;82.50
41953;DHT22;63613;28.200;112.870;2023-02-25T18:33:16;14.10;82.20
41953;DHT22;63613;28.200;112.870;2023-02-25T18:35:45;14.10;81.90
41953;DHT22;63613;28.200;112.870;2023-02-25T18:38:19;14.00;81.60
41953;DHT22;63613;28.200;112.870;2023-02-25T18:40:48;14.00;81.50
41953;DHT22;63613;28.200;112.870;2023-02-25T18:43:23;14.00;81.60
41953;DHT22;63613;28.200;112.870;2023-02-25T18:45:55;14.00;81.70
41953;DHT22;63613;28.200;112.870;2023-02-25T18:48:26;14.00;81.70
41953;DHT22;63613;28.200;112.870;2023-02-25T18:51:13;14.00;81.70
41953;DHT22;63613;28.200;112.870;2023-02-25T18:53:40;14.00;81.60
41953;DHT22;63613;28.200;112.870;2023-02-25T18:56:27;14.00;81.60
41953;DHT22;63613;28.200;112.870;2023-02-25T18:58:54;14.00;81.40
41953;DHT22;63613;28.200;112.870;2023-02-25T19:01:29;14.00;81.30
41953;DHT22;63613;28.200;112.870;2023-02-25T19:03:58;13.90;81.40
41953;DHT22;63613;28.200;112.870;2023-02-25T19:06:28;13.90;81.40
41953;DHT22;63613;28.200;112.870;2023-02-25T19:08:57;13.90;81.30
41953;DHT22;63613;28.200;112.870;2023-02-25T19:11:25;13.90;81.30
41953;DHT22;63613;28.200;112.870;2023-02-25T19:13:54;13.90;81.20
41953;DHT22;63613;28.200;112.870;2023-02-25T19:16:21;13.90;81.00
41953;DHT22;63613;28.200;112.870;2023-02-25T19:18:48;13.90;80.80
41953;DHT22;63613;28.200;112.870;2023-02-25T19:21:17;13.90;80.60
41953;DHT22;63613;28.200;112.870;2023-02-25T19:23:46;13.90;80.70
41953;DHT22;63613;28.200;112.870;2023-02-25T19:26:20;13.90;80.80
41953;DHT22;63613;28.200;112.870;2023-02-25T19:28:50;13.90;80.80
41953;DHT22;63613;28.200;112.870;2023-02-25T19:31:17;13.90;81.20
41953;DHT22;63613;28.200;112.870;2023-02-25T19:33:44;13.90;81.00
41953;DHT22;63613;28.200;112.870;2023-02-25T19:36:11;13.90;80.80
41953;DHT22;63613;28.200;112.870;2023-02-25T19:38:38;13.90;80.50
41953;DHT22;63613;28.200;112.870;2023-02-25T19:41:05;13.90;80.30
41953;DHT22;63613;28.200;112.870;2023-02-25T19:43:32;13.90;80.40